Time;durP1;ratioP1;P1;durP2;ratioP2;P2;SDS_P1;SDS_P2;PMS_P1;PMS_P2;Temp;Humidity;BMP_temperature;BMP_pressure;BME280_temperature;BME280_humidity;BME280_pressure;Samples;Min_cycle;Max_cycle;Signal;HPM_P1;HPM_P2
2023/08/16 00:00:45;;;;;;;4.80;2.20;;;17.90;99.90;;;;;;4952580;29;20400;-82
2023/08/16 00:03:11;;;;;;;3.85;1.95;;;17.80;99.90;;;;;;4953878;29;20028;-82
2023/08/16 00:05:37;;;;;;;3.70;1.92;;;17.70;99.90;;;;;;4953292;28;20082;-82
2023/08/16 00:08:02;;;;;;;3.80;1.75;;;17.70;99.90;;;;;;4953389;28;20019;-82
2023/08/16 00:10:28;;;;;;;3.58;1.80;;;17.70;99.90;;;;;;4953285;28;20031;-82
2023/08/16 00:12:53;;;;;;;2.35;1.92;;;17.70;99.90;;;;;;4953254;29;20103;-82
2023/08/16 00:15:19;;;;;;;3.85;1.77;;;17.70;99.90;;;;;;4934029;29;20040;-82
2023/08/16 00:17:45;;;;;;;2.88;1.77;;;17.70;99.90;;;;;;4933892;29;20024;-81
2023/08/16 00:20:11;;;;;;;4.18;2.30;;;17.60;99.90;;;;;;4934817;29;20039;-81
2023/08/16 00:22:37;;;;;;;3.15;1.80;;;17.60;99.90;;;;;;4933987;29;20384;-82
2023/08/16 00:25:03;;;;;;;4.13;2.13;;;17.60;99.90;;;;;;4933941;29;20031;-81
2023/08/16 00:27:28;;;;;;;8.32;1.80;;;17.50;99.90;;;;;;4933645;29;20020;-82
2023/08/16 00:29:54;;;;;;;4.80;1.80;;;17.50;99.90;;;;;;4933610;29;20027;-82
2023/08/16 00:32:19;;;;;;;7.93;2.00;;;17.50;99.90;;;;;;4940958;29;21279;-88
2023/08/16 00:34:45;;;;;;;1.65;1.50;;;17.50;99.90;;;;;;4952225;29;20519;-82
2023/08/16 00:37:10;;;;;;;3.58;1.70;;;17.50;99.90;;;;;;4952051;28;20035;-82
2023/08/16 00:39:38;;;;;;;3.30;1.60;;;17.40;99.90;;;;;;4950604;29;20040;-82
2023/08/16 00:42:04;;;;;;;1.67;1.58;;;17.50;99.90;;;;;;4945116;29;20031;-85
2023/08/16 00:44:30;;;;;;;3.53;1.80;;;17.50;99.90;;;;;;4952043;28;20094;-82
2023/08/16 00:46:55;;;;;;;3.08;1.88;;;17.50;99.90;;;;;;4949781;28;20462;-82
2023/08/16 00:49:21;;;;;;;2.67;1.65;;;17.50;99.90;;;;;;4950852;28;20043;-87
2023/08/16 00:51:48;;;;;;;6.22;1.77;;;17.50;99.90;;;;;;4951548;28;20086;-87
2023/08/16 00:54:14;;;;;;;3.92;1.80;;;17.50;99.90;;;;;;4953404;29;20070;-91
2023/08/16 00:56:39;;;;;;;4.55;1.83;;;17.50;99.90;;;;;;4950452;28;20059;-82
2023/08/16 00:59:05;;;;;;;3.90;1.77;;;17.40;99.90;;;;;;4952418;28;20479;-85
2023/08/16 01:01:31;;;;;;;4.35;1.90;;;17.40;99.90;;;;;;4951399;28;20491;-89
2023/08/16 01:03:57;;;;;;;4.45;1.60;;;17.40;99.90;;;;;;4951092;28;20484;-88
2023/08/16 01:06:23;;;;;;;2.63;1.70;;;17.30;99.90;;;;;;4952495;28;20106;-89
2023/08/16 01:08:50;;;;;;;4.13;1.83;;;17.30;99.90;;;;;;4951286;29;20034;-82
2023/08/16 01:11:28;;;;;;;2.38;1.45;;;17.20;99.90;;;;;;4952320;28;20023;-92
2023/08/16 01:14:15;;;;;;;4.05;1.77;;;17.20;99.90;;;;;;4952387;28;20468;-82
2023/08/16 01:16:43;;;;;;;3.55;1.70;;;17.10;99.90;;;;;;4947476;28;20039;-90
2023/08/16 01:19:27;;;;;;;2.47;1.60;;;17.10;99.90;;;;;;4950323;29;20043;-83
2023/08/16 01:22:04;;;;;;;2.83;1.40;;;17.10;99.90;;;;;;4951428;28;20403;-88
2023/08/16 01:24:38;;;;;;;3.50;1.80;;;17.10;99.90;;;;;;4949853;29;20095;-90
2023/08/16 01:27:04;;;;;;;1.88;1.50;;;17.10;99.90;;;;;;4950655;28;20506;-85
2023/08/16 01:29:31;;;;;;;4.18;1.80;;;17.10;99.90;;;;;;4951107;29;20369;-89
2023/08/16 01:31:56;;;;;;;4.65;1.90;;;17.00;99.90;;;;;;4936284;28;20436;-83
2023/08/16 01:34:22;;;;;;;2.78;1.90;;;17.00;99.90;;;;;;4950894;29;20486;-83
2023/08/16 01:36:48;;;;;;;6.15;1.90;;;16.90;99.90;;;;;;4952559;28;20055;-85
2023/08/16 01:39:13;;;;;;;4.43;2.10;;;16.90;99.90;;;;;;4950724;28;20020;-87
2023/08/16 01:41:43;;;;;;;2.72;1.98;;;16.90;99.90;;;;;;4950549;28;20074;-84
2023/08/16 01:44:11;;;;;;;5.63;2.10;;;16.90;99.90;;;;;;4950585;28;20382;-82
2023/08/16 01:46:39;;;;;;;8.27;2.45;;;16.90;99.90;;;;;;4950886;28;20024;-82
2023/08/16 01:49:06;;;;;;;2.93;2.00;;;16.70;99.90;;;;;;4949974;28;20054;-82
2023/08/16 01:51:31;;;;;;;3.83;2.17;;;16.60;99.90;;;;;;4946206;29;20027;-82
2023/08/16 01:53:57;;;;;;;3.20;2.05;;;16.70;99.90;;;;;;4950518;28;20035;-82
2023/08/16 01:56:22;;;;;;;5.97;2.33;;;16.70;99.90;;;;;;4949406;28;20090;-89
2023/08/16 01:58:48;;;;;;;6.05;2.30;;;16.70;99.90;;;;;;4952271;28;20027;-82
2023/08/16 02:01:14;;;;;;;3.25;2.20;;;16.60;99.90;;;;;;4950160;28;20054;-82
2023/08/16 02:03:40;;;;;;;2.75;2.13;;;16.70;99.90;;;;;;4950991;29;20386;-82
2023/08/16 02:06:06;;;;;;;4.78;2.20;;;16.70;99.90;;;;;;4951171;28;20074;-88
2023/08/16 02:08:31;;;;;;;4.80;2.20;;;16.80;99.90;;;;;;4932154;29;20020;-81
2023/08/16 02:10:57;;;;;;;4.45;2.65;;;16.80;99.90;;;;;;4932023;29;20471;-82
2023/08/16 02:13:23;;;;;;;2.47;2.20;;;16.80;99.90;;;;;;4931934;29;20024;-82
2023/08/16 02:15:48;;;;;;;5.38;2.50;;;16.90;99.90;;;;;;4933953;29;20075;-82
2023/08/16 02:18:14;;;;;;;5.28;2.40;;;16.80;99.90;;;;;;4951037;29;20118;-82
2023/08/16 02:20:40;;;;;;;6.78;2.55;;;16.80;99.90;;;;;;4950921;29;20034;-82
2023/08/16 02:23:06;;;;;;;5.28;2.53;;;16.90;99.90;;;;;;4951048;29;20019;-82
2023/08/16 02:25:32;;;;;;;4.93;3.10;;;16.80;99.90;;;;;;4951156;29;20463;-82
2023/08/16 02:27:58;;;;;;;4.93;2.70;;;16.80;99.90;;;;;;4951045;28;20054;-82
2023/08/16 02:30:23;;;;;;;5.80;2.30;;;16.80;99.90;;;;;;4951091;28;20033;-82
2023/08/16 02:32:49;;;;;;;3.67;2.53;;;16.80;99.90;;;;;;4949482;28;21294;-81
2023/08/16 02:35:15;;;;;;;7.53;2.90;;;16.80;99.90;;;;;;4942767;28;20044;-85
2023/08/16 02:37:42;;;;;;;5.78;2.70;;;16.80;99.90;;;;;;4944457;28;20078;-82
2023/08/16 02:40:08;;;;;;;6.00;2.42;;;16.70;99.90;;;;;;4940761;28;20570;-81
2023/08/16 02:42:34;;;;;;;4.22;2.65;;;16.70;99.90;;;;;;4945779;28;20023;-88
2023/08/16 02:45:00;;;;;;;4.63;2.42;;;16.70;99.90;;;;;;4945213;28;20035;-81
2023/08/16 02:47:26;;;;;;;3.63;2.47;;;16.70;99.90;;;;;;4943122;28;20019;-85
2023/08/16 02:49:52;;;;;;;3.28;2.33;;;16.60;99.90;;;;;;4942695;28;20522;-80
2023/08/16 02:52:18;;;;;;;3.13;2.70;;;16.50;99.90;;;;;;4943713;28;20027;-83
2023/08/16 02:54:44;;;;;;;4.53;2.60;;;16.60;99.90;;;;;;4948158;28;20400;-81
2023/08/16 02:57:09;;;;;;;6.18;2.83;;;16.50;99.90;;;;;;4947010;28;20114;-83
2023/08/16 02:59:46;;;;;;;6.93;2.55;;;16.60;99.90;;;;;;4940836;28;20038;-81
2023/08/16 03:02:12;;;;;;;4.68;2.40;;;16.60;99.90;;;;;;4943636;28;20028;-80
2023/08/16 03:04:41;;;;;;;3.90;2.50;;;16.60;99.90;;;;;;4942311;28;20510;-80
2023/08/16 03:07:08;;;;;;;4.13;2.45;;;16.60;99.90;;;;;;4944272;28;20049;-85
2023/08/16 03:09:35;;;;;;;4.93;2.47;;;16.60;99.90;;;;;;4941452;28;20110;-81
2023/08/16 03:12:01;;;;;;;3.28;2.40;;;16.60;99.90;;;;;;4945122;28;20031;-81
2023/08/16 03:14:28;;;;;;;4.70;2.30;;;16.60;99.90;;;;;;4948736;28;20907;-82
2023/08/16 03:16:55;;;;;;;6.38;2.30;;;16.60;99.90;;;;;;4945270;28;20385;-82
2023/08/16 03:19:20;;;;;;;4.57;2.47;;;16.60;99.90;;;;;;4946457;28;20030;-81
2023/08/16 03:21:46;;;;;;;9.60;2.60;;;16.50;99.90;;;;;;4944323;28;20027;-84
2023/08/16 03:24:11;;;;;;;4.95;2.42;;;16.50;99.90;;;;;;4946372;28;20027;-89
2023/08/16 03:26:37;;;;;;;5.32;2.35;;;16.50;99.90;;;;;;4944788;28;20396;-82
2023/08/16 03:29:05;;;;;;;5.43;3.47;;;16.50;99.90;;;;;;4943688;28;20472;-82
2023/08/16 03:31:31;;;;;;;7.55;2.70;;;16.50;99.90;;;;;;4944315;28;20540;-82
2023/08/16 03:33:57;;;;;;;9.90;3.00;;;16.40;99.90;;;;;;4946704;28;20040;-83
2023/08/16 03:36:24;;;;;;;2.95;2.50;;;16.40;99.90;;;;;;4945730;28;20086;-82
2023/08/16 03:38:49;;;;;;;3.95;2.80;;;16.20;99.90;;;;;;4946745;29;20030;-81
2023/08/16 03:41:15;;;;;;;3.97;2.40;;;16.20;99.90;;;;;;4944125;28;20790;-83
2023/08/16 03:43:40;;;;;;;5.25;2.55;;;16.30;99.90;;;;;;4952898;28;20031;-89
2023/08/16 03:46:07;;;;;;;4.63;2.42;;;16.30;99.90;;;;;;4951807;29;20031;-83
2023/08/16 03:48:33;;;;;;;6.72;2.83;;;16.10;99.90;;;;;;4951319;28;20110;-81
2023/08/16 03:50:59;;;;;;;4.45;2.78;;;16.00;99.90;;;;;;4942880;29;20030;-85
2023/08/16 03:53:24;;;;;;;6.32;2.80;;;15.90;99.90;;;;;;4954307;28;20027;-81
2023/08/16 03:55:57;;;;;;;4.72;2.60;;;15.90;99.90;;;;;;4953520;28;20047;-87
2023/08/16 03:58:24;;;;;;;7.43;2.80;;;16.00;99.90;;;;;;4952304;28;20036;-88
2023/08/16 04:00:51;;;;;;;5.45;2.88;;;16.00;99.90;;;;;;4952882;29;20531;-88
2023/08/16 04:03:17;;;;;;;6.40;2.80;;;16.00;99.90;;;;;;4953175;29;20031;-85
2023/08/16 04:05:43;;;;;;;6.05;2.80;;;16.00;99.90;;;;;;4951666;29;20114;-89
2023/08/16 04:08:09;;;;;;;8.88;3.70;;;16.10;99.90;;;;;;4950793;29;20118;-84
2023/08/16 04:10:35;;;;;;;4.82;2.72;;;16.10;99.90;;;;;;4953616;29;20043;-90
2023/08/16 04:13:01;;;;;;;11.35;3.00;;;16.00;99.90;;;;;;4948709;28;20019;-85
2023/08/16 04:15:27;;;;;;;8.75;3.38;;;16.00;99.90;;;;;;4950782;28;20042;-84
2023/08/16 04:17:54;;;;;;;4.95;2.72;;;16.00;99.90;;;;;;4952743;28;20026;-84
2023/08/16 04:20:20;;;;;;;4.95;2.95;;;16.00;99.90;;;;;;4953357;28;20436;-89
2023/08/16 04:22:45;;;;;;;6.60;3.08;;;16.00;99.90;;;;;;4950890;28;20110;-84
2023/08/16 04:25:12;;;;;;;5.60;3.05;;;16.10;99.90;;;;;;4937735;28;20067;-86
2023/08/16 04:27:38;;;;;;;9.18;3.03;;;16.00;99.90;;;;;;4943714;29;20028;-89
2023/08/16 04:30:05;;;;;;;6.97;2.92;;;15.90;99.90;;;;;;4952299;28;20071;-86
2023/08/16 04:32:31;;;;;;;7.15;2.80;;;15.80;99.90;;;;;;4947205;29;20024;-84
2023/08/16 04:34:56;;;;;;;5.88;3.03;;;15.90;99.90;;;;;;4953020;29;20559;-88
2023/08/16 04:37:22;;;;;;;6.65;2.97;;;15.90;99.90;;;;;;4952198;28;20033;-90
2023/08/16 04:39:48;;;;;;;5.95;3.40;;;15.90;99.90;;;;;;4953421;28;20388;-89
2023/08/16 04:42:14;;;;;;;7.82;3.17;;;15.90;99.90;;;;;;4953154;29;20015;-90
2023/08/16 04:44:41;;;;;;;4.55;2.97;;;15.90;99.90;;;;;;4953744;28;20027;-89
2023/08/16 04:47:07;;;;;;;5.78;3.15;;;15.90;99.90;;;;;;4953440;29;20023;-91
2023/08/16 04:49:32;;;;;;;7.53;3.10;;;15.90;99.90;;;;;;4951523;29;20057;-84
2023/08/16 04:51:58;;;;;;;5.13;3.28;;;16.00;99.90;;;;;;4953304;29;20039;-86
2023/08/16 04:54:24;;;;;;;4.38;2.60;;;15.90;99.90;;;;;;4953234;29;20031;-83
2023/08/16 04:56:50;;;;;;;6.82;3.20;;;15.90;99.90;;;;;;4950935;29;20038;-84
2023/08/16 04:59:16;;;;;;;5.28;2.80;;;15.80;99.90;;;;;;4946992;29;20381;-83
2023/08/16 05:01:42;;;;;;;7.50;3.15;;;15.90;99.90;;;;;;4933019;29;20032;-83
2023/08/16 05:04:09;;;;;;;9.25;3.35;;;15.90;99.90;;;;;;4933179;29;20099;-83
2023/08/16 05:06:35;;;;;;;4.65;3.10;;;15.90;99.90;;;;;;4933196;29;20036;-83
2023/08/16 05:09:02;;;;;;;5.63;3.20;;;15.90;99.90;;;;;;4933018;29;20016;-87
2023/08/16 05:11:28;;;;;;;5.75;2.90;;;15.80;99.90;;;;;;4932831;29;20513;-88
2023/08/16 05:13:53;;;;;;;4.82;2.85;;;15.80;99.90;;;;;;4933008;29;20488;-89
2023/08/16 05:16:19;;;;;;;4.10;3.00;;;15.90;99.90;;;;;;4932922;29;20579;-83
2023/08/16 05:18:44;;;;;;;3.85;2.75;;;15.90;99.90;;;;;;4931630;29;20019;-83
2023/08/16 05:21:10;;;;;;;6.22;2.80;;;15.90;99.90;;;;;;4932912;29;20070;-84
2023/08/16 05:23:36;;;;;;;4.35;2.72;;;15.90;99.90;;;;;;4931546;29;20096;-88
2023/08/16 05:26:01;;;;;;;4.35;2.80;;;15.90;99.90;;;;;;4932736;29;20388;-83
2023/08/16 05:28:28;;;;;;;4.40;2.88;;;15.90;99.90;;;;;;4933410;29;20060;-84
2023/08/16 05:30:53;;;;;;;6.05;2.83;;;15.80;99.90;;;;;;4932708;29;20028;-83
2023/08/16 05:33:19;;;;;;;5.13;3.00;;;15.90;99.90;;;;;;4931441;29;20028;-83
2023/08/16 05:35:44;;;;;;;6.70;2.80;;;15.90;99.90;;;;;;4932042;29;20059;-88
2023/08/16 05:38:10;;;;;;;3.67;3.05;;;15.90;99.90;;;;;;4932664;29;20030;-87
2023/08/16 05:40:36;;;;;;;6.53;3.20;;;15.90;99.90;;;;;;4932534;29;20043;-89
2023/08/16 05:43:01;;;;;;;4.97;2.90;;;16.00;99.90;;;;;;4932507;29;20051;-83
2023/08/16 05:45:28;;;;;;;5.80;2.85;;;15.90;99.90;;;;;;4933389;29;20055;-84
2023/08/16 05:47:54;;;;;;;5.25;3.13;;;16.00;99.90;;;;;;4932461;29;20024;-88
2023/08/16 05:50:21;;;;;;;5.35;3.00;;;16.00;99.90;;;;;;4932448;29;20416;-88
2023/08/16 05:52:47;;;;;;;7.15;3.30;;;16.00;99.90;;;;;;4932428;29;20071;-88
2023/08/16 05:55:12;;;;;;;6.18;2.80;;;16.10;99.90;;;;;;4932253;29;20475;-83
2023/08/16 05:57:38;;;;;;;4.43;2.65;;;16.20;99.90;;;;;;4932274;29;20510;-88
2023/08/16 06:00:04;;;;;;;5.15;3.10;;;16.10;99.90;;;;;;4930944;29;20362;-87
2023/08/16 06:02:30;;;;;;;3.83;2.78;;;16.20;99.90;;;;;;4933004;29;20118;-83
2023/08/16 06:04:58;;;;;;;6.85;2.90;;;16.10;99.90;;;;;;4930974;29;20068;-83
2023/08/16 06:07:25;;;;;;;6.55;2.90;;;16.10;99.90;;;;;;4932255;29;20019;-83
2023/08/16 06:09:51;;;;;;;5.32;3.40;;;16.10;99.90;;;;;;4932008;29;20051;-83
2023/08/16 06:12:17;;;;;;;6.05;3.10;;;16.10;99.90;;;;;;4932110;29;20125;-83
2023/08/16 06:14:43;;;;;;;8.52;3.08;;;16.10;99.90;;;;;;4932014;29;20028;-83
2023/08/16 06:17:08;;;;;;;5.18;2.95;;;16.00;99.90;;;;;;4931888;29;20039;-83
2023/08/16 06:19:34;;;;;;;6.38;3.50;;;16.10;99.90;;;;;;4931969;29;20023;-83
2023/08/16 06:21:59;;;;;;;4.60;3.00;;;16.00;99.90;;;;;;4932809;29;20034;-88
2023/08/16 06:24:25;;;;;;;9.32;3.33;;;16.00;99.90;;;;;;4930717;29;20059;-88
2023/08/16 06:26:51;;;;;;;4.43;3.08;;;16.00;99.90;;;;;;4932000;29;20051;-83
2023/08/16 06:29:17;;;;;;;7.50;3.13;;;16.10;99.90;;;;;;4931912;29;20070;-88
2023/08/16 06:31:42;;;;;;;7.07;2.85;;;16.10;99.90;;;;;;4931981;29;20020;-87
2023/08/16 06:34:08;;;;;;;6.75;3.40;;;16.10;99.90;;;;;;4931964;29;20488;-87
2023/08/16 06:36:34;;;;;;;4.28;3.28;;;16.20;99.90;;;;;;4932444;29;20122;-83
2023/08/16 06:38:59;;;;;;;6.75;3.53;;;16.10;99.90;;;;;;4932634;29;20035;-85
2023/08/16 06:41:25;;;;;;;9.82;3.45;;;16.20;99.90;;;;;;4931836;29;20032;-84
2023/08/16 06:43:51;;;;;;;7.55;3.55;;;16.10;99.90;;;;;;4930506;29;20020;-85
2023/08/16 06:46:16;;;;;;;4.72;2.90;;;16.20;99.90;;;;;;4932033;29;20404;-87
2023/08/16 06:48:42;;;;;;;8.60;3.25;;;16.20;99.90;;;;;;4935809;29;20024;-88
2023/08/16 06:51:08;;;;;;;5.47;2.90;;;16.20;99.90;;;;;;4935661;29;20085;-88
2023/08/16 06:53:33;;;;;;;7.60;3.10;;;16.30;99.90;;;;;;4936477;29;20026;-90
2023/08/16 06:55:59;;;;;;;6.95;3.60;;;16.40;99.90;;;;;;4935423;29;20052;-87
2023/08/16 06:58:25;;;;;;;5.63;3.05;;;16.40;99.90;;;;;;4935605;29;20515;-84
2023/08/16 07:00:50;;;;;;;7.55;3.20;;;16.50;99.90;;;;;;4935738;29;20032;-83
2023/08/16 07:03:17;;;;;;;4.90;2.60;;;16.50;99.90;;;;;;4935423;29;20476;-84
2023/08/16 07:05:43;;;;;;;8.20;2.88;;;16.50;99.90;;;;;;4935360;29;20049;-84
2023/08/16 07:08:08;;;;;;;8.32;2.70;;;16.50;99.90;;;;;;4935261;29;20118;-83
2023/08/16 07:10:35;;;;;;;7.47;2.55;;;16.60;99.90;;;;;;4935968;29;20152;-84
2023/08/16 07:13:02;;;;;;;4.22;2.45;;;16.80;99.90;;;;;;4936034;29;20068;-84
2023/08/16 07:15:28;;;;;;;5.65;2.72;;;16.80;99.90;;;;;;4935134;29;20044;-86
2023/08/16 07:17:54;;;;;;;4.78;2.40;;;16.90;99.90;;;;;;4935114;29;20020;-88
2023/08/16 07:20:19;;;;;;;5.90;2.92;;;16.90;99.90;;;;;;4935121;29;20054;-83
2023/08/16 07:22:45;;;;;;;8.27;2.85;;;17.00;99.90;;;;;;4935004;29;20016;-83
2023/08/16 07:25:11;;;;;;;5.43;2.40;;;17.00;99.90;;;;;;4935034;29;20058;-83
2023/08/16 07:27:37;;;;;;;3.80;2.38;;;17.00;99.90;;;;;;4933651;29;20028;-83
2023/08/16 07:30:04;;;;;;;4.20;2.65;;;17.00;99.90;;;;;;4935704;29;20038;-83
2023/08/16 07:32:30;;;;;;;6.32;2.50;;;17.20;99.90;;;;;;4934945;29;20020;-84
2023/08/16 07:34:56;;;;;;;5.95;2.40;;;17.30;99.90;;;;;;4934720;29;20380;-83
2023/08/16 07:37:22;;;;;;;2.30;2.10;;;17.40;99.90;;;;;;4934743;29;20027;-84
2023/08/16 07:39:48;;;;;;;3.97;1.75;;;17.50;99.90;;;;;;4934647;29;20028;-87
2023/08/16 07:42:15;;;;;;;5.63;1.70;;;17.60;99.90;;;;;;4934702;29;20028;-84
2023/08/16 07:44:41;;;;;;;4.20;1.70;;;17.60;99.90;;;;;;4934651;29;20024;-86
2023/08/16 07:47:09;;;;;;;1.98;1.55;;;17.80;99.90;;;;;;4934041;29;20031;-86
2023/08/16 07:49:35;;;;;;;6.75;1.80;;;18.00;99.90;;;;;;4935384;29;20020;-84
2023/08/16 07:52:01;;;;;;;3.42;1.92;;;17.90;99.90;;;;;;4934587;29;20028;-83
2023/08/16 07:54:26;;;;;;;3.08;1.60;;;18.00;99.90;;;;;;4934364;29;20032;-86
2023/08/16 07:56:52;;;;;;;5.28;1.70;;;18.10;99.90;;;;;;4934491;29;20063;-86
2023/08/16 07:59:18;;;;;;;4.10;1.55;;;18.20;99.90;;;;;;4934145;29;20106;-88
2023/08/16 08:01:45;;;;;;;2.97;1.50;;;18.40;99.90;;;;;;4934393;29;20159;-85
2023/08/16 08:04:11;;;;;;;3.63;1.40;;;18.40;99.90;;;;;;4934287;29;20082;-86
2023/08/16 08:06:36;;;;;;;5.57;1.58;;;18.60;99.90;;;;;;4935069;29;20106;-88
2023/08/16 08:09:03;;;;;;;3.58;1.60;;;18.70;99.90;;;;;;4934207;29;20050;-89
2023/08/16 08:11:29;;;;;;;5.10;1.58;;;18.60;99.90;;;;;;4934274;29;20604;-87
2023/08/16 08:13:54;;;;;;;1.42;1.20;;;18.60;99.90;;;;;;4934006;29;20035;-85
2023/08/16 08:16:20;;;;;;;2.80;1.48;;;18.80;99.90;;;;;;4934176;29;20028;-84
2023/08/16 08:18:46;;;;;;;1.88;1.25;;;18.90;99.90;;;;;;4934011;29;20091;-83
2023/08/16 08:21:12;;;;;;;1.52;1.25;;;18.90;99.90;;;;;;4934332;29;20110;-88
2023/08/16 08:23:37;;;;;;;2.33;1.52;;;19.10;99.90;;;;;;4934803;29;20147;-88
2023/08/16 08:26:03;;;;;;;2.67;1.30;;;19.30;99.90;;;;;;4933950;29;20071;-86
2023/08/16 08:28:29;;;;;;;4.22;1.50;;;19.60;99.90;;;;;;4932584;29;20067;-84
2023/08/16 08:30:54;;;;;;;2.08;1.23;;;19.80;99.90;;;;;;4932305;29;20142;-87
2023/08/16 08:33:20;;;;;;;2.90;1.38;;;19.80;99.90;;;;;;4933824;29;20494;-88
2023/08/16 08:35:46;;;;;;;5.32;1.23;;;19.70;99.90;;;;;;4933545;29;20046;-87
2023/08/16 08:38:12;;;;;;;3.97;1.25;;;19.80;99.90;;;;;;4933727;29;20020;-88
2023/08/16 08:40:38;;;;;;;4.25;1.30;;;20.00;99.90;;;;;;4933219;29;20074;-84
2023/08/16 08:43:05;;;;;;;4.43;1.48;;;20.00;99.90;;;;;;4933613;29;20031;-84
2023/08/16 08:45:31;;;;;;;2.40;1.30;;;20.20;99.90;;;;;;4933565;29;20036;-87
2023/08/16 08:47:58;;;;;;;3.15;1.20;;;20.10;99.90;;;;;;4933614;29;20491;-86
2023/08/16 08:50:24;;;;;;;2.33;1.20;;;20.00;99.90;;;;;;4933345;29;20031;-84
2023/08/16 08:52:51;;;;;;;3.60;1.10;;;20.00;99.90;;;;;;4933438;29;20023;-85
2023/08/16 08:55:18;;;;;;;3.67;1.17;;;19.90;99.90;;;;;;4933322;29;20069;-84
2023/08/16 08:57:50;;;;;;;2.83;1.38;;;20.00;99.90;;;;;;4933226;29;20039;-84
2023/08/16 09:00:18;;;;;;;1.15;0.90;;;20.10;99.90;;;;;;4933366;29;20045;-87
2023/08/16 09:02:46;;;;;;;3.33;1.30;;;20.30;99.90;;;;;;4933194;29;20110;-89
2023/08/16 09:05:13;;;;;;;2.80;1.35;;;20.50;99.90;;;;;;4933985;29;20020;-84
2023/08/16 09:07:42;;;;;;;3.17;1.30;;;20.60;99.90;;;;;;4932664;29;20032;-86
2023/08/16 09:10:09;;;;;;;2.00;1.20;;;20.60;99.90;;;;;;4933194;29;20027;-88
2023/08/16 09:12:37;;;;;;;0.80;0.80;;;20.60;99.90;;;;;;4933181;29;20026;-88
2023/08/16 09:15:03;;;;;;;2.20;1.15;;;20.50;99.90;;;;;;4932936;29;20353;-87
2023/08/16 09:17:29;;;;;;;2.05;1.23;;;20.70;99.90;;;;;;4932977;29;20016;-85
2023/08/16 09:19:54;;;;;;;1.58;1.10;;;20.70;99.90;;;;;;4932995;29;20083;-89
2023/08/16 09:22:20;;;;;;;4.05;1.20;;;20.80;99.90;;;;;;4932770;29;20020;-88
2023/08/16 09:24:46;;;;;;;2.63;1.30;;;20.90;99.90;;;;;;4932975;29;20477;-88
2023/08/16 09:27:12;;;;;;;4.97;1.20;;;20.80;99.90;;;;;;4933705;29;20023;-84
2023/08/16 09:29:40;;;;;;;3.33;1.40;;;21.00;99.90;;;;;;4932724;29;20032;-84
2023/08/16 09:32:09;;;;;;;2.80;1.48;;;21.20;99.90;;;;;;4932722;29;20099;-87
2023/08/16 09:34:35;;;;;;;1.70;1.20;;;21.10;99.90;;;;;;4932466;29;20027;-86
2023/08/16 09:37:05;;;;;;;3.47;1.30;;;21.20;99.90;;;;;;4932622;29;20043;-87
2023/08/16 09:39:30;;;;;;;4.18;1.35;;;21.00;99.90;;;;;;4932587;29;20051;-88
2023/08/16 09:41:57;;;;;;;3.30;1.30;;;21.20;99.90;;;;;;4932688;29;20070;-85
2023/08/16 09:44:29;;;;;;;1.40;1.30;;;21.20;99.90;;;;;;4931174;29;20031;-87
2023/08/16 09:46:57;;;;;;;1.58;1.10;;;21.20;99.90;;;;;;4932238;29;20098;-87
2023/08/16 09:49:23;;;;;;;2.15;1.17;;;21.20;99.90;;;;;;4932464;29;20389;-85
2023/08/16 09:51:49;;;;;;;1.92;0.90;;;21.30;99.90;;;;;;4932367;29;20027;-87
2023/08/16 09:54:17;;;;;;;5.07;1.83;;;21.30;99.90;;;;;;4932367;29;20026;-86
2023/08/16 09:56:43;;;;;;;1.75;1.05;;;21.40;99.90;;;;;;4933131;29;20111;-87
2023/08/16 09:59:11;;;;;;;3.33;1.30;;;21.40;99.90;;;;;;4932215;29;20118;-87
2023/08/16 10:01:37;;;;;;;3.22;1.15;;;21.50;99.90;;;;;;4930953;29;20051;-86
2023/08/16 10:04:04;;;;;;;1.85;1.20;;;21.60;99.90;;;;;;4932232;29;20020;-87
2023/08/16 10:06:33;;;;;;;7.90;1.50;;;21.60;99.90;;;;;;4932224;29;20055;-84
2023/08/16 10:08:59;;;;;;;2.47;1.50;;;21.70;99.90;;;;;;4932209;29;20036;-84
2023/08/16 10:11:26;;;;;;;5.85;3.60;;;21.80;99.90;;;;;;4932196;29;20080;-84
2023/08/16 10:13:52;;;;;;;5.07;1.40;;;22.00;99.90;;;;;;4932193;29;20483;-88
2023/08/16 10:16:21;;;;;;;5.45;1.20;;;22.10;99.90;;;;;;4932014;29;20087;-87
2023/08/16 10:18:47;;;;;;;2.92;1.40;;;22.10;99.90;;;;;;4932172;29;20059;-87
2023/08/16 10:21:17;;;;;;;4.15;1.92;;;22.10;99.90;;;;;;4932809;29;20034;-87
2023/08/16 10:23:44;;;;;;;3.60;1.35;;;22.10;99.90;;;;;;4932858;29;20461;-88
2023/08/16 10:26:14;;;;;;;2.70;1.30;;;22.00;99.90;;;;;;4931884;29;20047;-90
2023/08/16 10:28:44;;;;;;;3.92;1.73;;;22.00;99.90;;;;;;4931915;29;20031;-85
2023/08/16 10:31:10;;;;;;;7.95;1.88;;;22.10;99.90;;;;;;4931952;29;20032;-85
2023/08/16 10:33:39;;;;;;;4.20;1.23;;;22.20;99.90;;;;;;4931923;29;20031;-88
2023/08/16 10:36:06;;;;;;;1.17;1.05;;;22.20;99.90;;;;;;4931784;29;20102;-89
2023/08/16 10:38:38;;;;;;;1.95;1.50;;;22.40;99.90;;;;;;4931907;29;20400;-88
2023/08/16 10:41:14;;;;;;;3.28;1.30;;;22.40;99.90;;;;;;4931831;29;20031;-88
2023/08/16 10:43:48;;;;;;;4.20;1.35;;;22.50;99.90;;;;;;4931904;29;20114;-84
2023/08/16 10:46:27;;;;;;;3.58;1.52;;;22.60;99.90;;;;;;4932758;29;20028;-84
2023/08/16 10:49:06;;;;;;;4.22;2.75;;;22.50;99.90;;;;;;4931813;29;20043;-84
2023/08/16 10:51:51;;;;;;;5.10;1.83;;;22.60;99.90;;;;;;4930267;29;20496;-84
2023/08/16 10:54:16;;;;;;;9.13;1.48;;;22.80;99.90;;;;;;4932520;29;20396;-89
2023/08/16 10:56:49;;;;;;;2.35;1.25;;;22.80;99.90;;;;;;4930527;29;20039;-84
2023/08/16 10:59:16;;;;;;;2.03;1.30;;;22.70;99.90;;;;;;4932554;29;20016;-85
2023/08/16 11:01:46;;;;;;;2.95;1.40;;;22.60;99.90;;;;;;4931571;29;20043;-88
2023/08/16 11:04:12;;;;;;;5.10;1.48;;;22.60;99.90;;;;;;4931512;29;20127;-84
2023/08/16 11:06:39;;;;;;;3.47;1.63;;;22.50;99.90;;;;;;4931602;29;20712;-84
2023/08/16 11:09:05;;;;;;;3.30;1.52;;;22.80;99.90;;;;;;4931594;29;20024;-88
2023/08/16 11:11:31;;;;;;;1.20;1.10;;;22.90;99.90;;;;;;4931426;29;20511;-88
2023/08/16 11:14:00;;;;;;;2.90;1.42;;;23.00;99.90;;;;;;4931501;29;20020;-83
2023/08/16 11:16:27;;;;;;;5.97;1.30;;;23.00;99.90;;;;;;4931646;29;20394;-88
2023/08/16 11:18:52;;;;;;;2.75;1.33;;;23.20;99.90;;;;;;4931538;29;20024;-84
2023/08/16 11:21:19;;;;;;;2.15;1.30;;;23.20;99.90;;;;;;4932595;29;20059;-84
2023/08/16 11:23:45;;;;;;;3.03;1.40;;;23.30;99.90;;;;;;4932383;29;20055;-89
2023/08/16 11:26:11;;;;;;;3.40;1.42;;;23.20;99.90;;;;;;4931382;29;20122;-87
2023/08/16 11:28:39;;;;;;;2.80;1.40;;;23.10;99.90;;;;;;4931497;29;20023;-87
2023/08/16 11:31:06;;;;;;;;;;;23.10;99.90;;;;;;4931853;29;20035;-86
2023/08/16 11:33:35;;;;;;;3.28;1.17;;;23.10;99.90;;;;;;4932195;29;19970;-87
2023/08/16 11:36:02;;;;;;;4.40;1.60;;;23.00;99.90;;;;;;4934748;29;20040;-86
2023/08/16 11:38:28;;;;;;;1.67;1.23;;;23.10;99.90;;;;;;4934826;29;20385;-86
2023/08/16 11:40:55;;;;;;;3.75;1.27;;;23.00;99.90;;;;;;4934730;29;20031;-87
2023/08/16 11:43:26;;;;;;;3.60;1.40;;;23.10;99.90;;;;;;4934746;29;20027;-84
2023/08/16 11:45:52;;;;;;;4.57;1.25;;;23.30;99.90;;;;;;4934627;29;20038;-88
2023/08/16 11:48:18;;;;;;;4.55;1.42;;;23.50;99.90;;;;;;4935479;29;20450;-88
2023/08/16 11:50:44;;;;;;;2.10;1.20;;;23.50;99.90;;;;;;4934519;29;20396;-85
2023/08/16 11:53:14;;;;;;;7.10;1.25;;;23.50;99.90;;;;;;4934548;29;20031;-86
2023/08/16 11:55:41;;;;;;;4.25;1.20;;;23.60;99.90;;;;;;4934219;29;20044;-87
2023/08/16 11:58:11;;;;;;;1.98;1.20;;;23.70;99.90;;;;;;4934456;29;20051;-87
2023/08/16 12:00:42;;;;;;;3.40;1.20;;;23.70;99.90;;;;;;4934709;29;20090;-87
2023/08/16 12:03:10;;;;;;;2.90;1.30;;;23.70;99.90;;;;;;4934425;29;20384;-87
2023/08/16 12:05:38;;;;;;;2.78;1.40;;;23.60;99.90;;;;;;4934341;29;20031;-88
2023/08/16 12:08:08;;;;;;;8.05;1.30;;;23.60;99.90;;;;;;4934316;29;20024;-90
2023/08/16 12:10:35;;;;;;;3.63;1.50;;;23.70;99.90;;;;;;4934139;29;20074;-88
2023/08/16 12:13:13;;;;;;;3.15;1.30;;;23.60;99.90;;;;;;4934248;29;20044;-84
2023/08/16 12:15:41;;;;;;;2.75;1.20;;;23.80;99.90;;;;;;4934071;29;20038;-87
2023/08/16 12:18:06;;;;;;;4.97;1.90;;;23.60;99.90;;;;;;4934078;29;20059;-87
2023/08/16 12:20:32;;;;;;;1.60;1.30;;;23.50;99.90;;;;;;4934098;29;20092;-87
2023/08/16 12:23:02;;;;;;;4.85;1.85;;;23.50;99.90;;;;;;4932623;29;20059;-87
2023/08/16 12:25:28;;;;;;;4.05;1.30;;;23.50;99.90;;;;;;4932589;29;20484;-87
2023/08/16 12:27:53;;;;;;;3.88;1.67;;;23.60;99.90;;;;;;4933697;29;20174;-83
2023/08/16 12:30:19;;;;;;;3.35;1.48;;;23.70;99.90;;;;;;4933571;29;20126;-87
2023/08/16 12:32:45;;;;;;;2.85;1.30;;;23.70;99.90;;;;;;4933858;29;20020;-87
2023/08/16 12:35:10;;;;;;;1.38;1.13;;;23.80;99.90;;;;;;4933652;29;20028;-85
2023/08/16 12:37:36;;;;;;;7.30;1.35;;;23.70;99.90;;;;;;4932371;29;20073;-87
2023/08/16 12:40:02;;;;;;;3.15;1.17;;;23.80;99.90;;;;;;4933765;29;20023;-87
2023/08/16 12:42:27;;;;;;;2.22;1.30;;;23.70;99.90;;;;;;4933682;29;20036;-87
2023/08/16 12:44:53;;;;;;;2.47;1.48;;;23.80;99.90;;;;;;4933454;29;20027;-89